Time;durP1;ratioP1;P1;durP2;ratioP2;P2;SDS_P1;SDS_P2;PMS_P1;PMS_P2;Temp;Humidity;BMP_temperature;BMP_pressure;BME280_temperature;BME280_humidity;BME280_pressure;Samples;Min_cycle;Max_cycle;Signal;HPM_P1;HPM_P2
2022/03/15 00:00:56;;;;;;;3.75;2.20;;;22.30;69.70;;;;;;4952475;28;96657;-63
2022/03/15 00:03:28;;;;;;;3.30;2.40;;;22.20;70.10;;;;;;4963621;28;95899;-63
2022/03/15 00:05:59;;;;;;;2.38;2.17;;;22.30;70.20;;;;;;4962044;28;95909;-64
2022/03/15 00:08:32;;;;;;;2.67;2.10;;;22.20;70.30;;;;;;4964227;28;96287;-64
2022/03/15 00:11:05;;;;;;;3.53;2.35;;;22.20;70.50;;;;;;4962753;28;95966;-63
2022/03/15 00:13:39;;;;;;;5.65;2.13;;;22.20;70.60;;;;;;4963324;28;95673;-64
2022/03/15 00:16:10;;;;;;;5.07;1.98;;;22.20;70.60;;;;;;4955899;28;96563;-63
2022/03/15 00:18:43;;;;;;;2.20;2.00;;;22.20;70.50;;;;;;4964198;28;96017;-63
2022/03/15 00:21:14;;;;;;;2.67;2.47;;;22.30;70.50;;;;;;4961685;28;97066;-63
2022/03/15 00:23:45;;;;;;;3.33;2.28;;;22.30;70.70;;;;;;4963304;28;95958;-63
2022/03/15 00:26:16;;;;;;;4.18;2.50;;;22.30;70.50;;;;;;4962323;28;95902;-63
2022/03/15 00:28:46;;;;;;;;;;;22.30;70.50;;;;;;4961371;28;95869;-63
2022/03/15 00:31:17;;;;;;;2.60;2.40;;;22.30;70.50;;;;;;4948775;28;95894;-64
2022/03/15 00:33:48;;;;;;;2.42;2.15;;;22.30;70.50;;;;;;4945624;28;95745;-63
2022/03/15 00:36:19;;;;;;;2.00;1.90;;;22.40;70.60;;;;;;4978271;28;96319;-56
2022/03/15 00:38:50;;;;;;;3.05;2.33;;;22.30;70.50;;;;;;4944945;28;96831;-55
2022/03/15 00:41:22;;;;;;;2.45;2.08;;;22.30;70.50;;;;;;4945219;28;96118;-56
2022/03/15 00:43:52;;;;;;;3.03;2.45;;;22.40;70.80;;;;;;4940519;28;96203;-63
2022/03/15 00:46:24;;;;;;;2.25;2.05;;;22.40;70.60;;;;;;4931166;28;98443;-64
2022/03/15 00:48:54;;;;;;;2.63;2.40;;;22.40;70.60;;;;;;4946040;28;95700;-63
2022/03/15 00:51:28;;;;;;;3.42;2.30;;;22.40;70.70;;;;;;4946981;28;95385;-63
2022/03/15 00:53:59;;;;;;;2.58;2.38;;;22.40;70.70;;;;;;4947190;28;95958;-64
2022/03/15 00:56:30;;;;;;;2.20;2.00;;;22.50;70.60;;;;;;4946585;28;97414;-63
2022/03/15 00:59:00;;;;;;;3.88;2.10;;;22.50;70.60;;;;;;4945274;28;95871;-63
2022/03/15 01:01:31;;;;;;;2.63;2.10;;;22.60;70.60;;;;;;4945138;28;96495;-55
2022/03/15 01:04:03;;;;;;;2.50;2.05;;;22.60;71.20;;;;;;4964571;28;95645;-63
2022/03/15 01:06:38;;;;;;;2.30;2.10;;;22.60;70.50;;;;;;4964144;28;95850;-63
2022/03/15 01:09:10;;;;;;;2.25;2.08;;;22.70;70.50;;;;;;4963831;28;95430;-63
2022/03/15 01:11:41;;;;;;;2.65;1.80;;;22.70;70.40;;;;;;4964418;28;95963;-62
2022/03/15 01:14:11;;;;;;;;;;;22.80;71.10;;;;;;4965660;28;95838;-52
2022/03/15 01:16:42;;;;;;;2.40;2.20;;;22.80;70.50;;;;;;4955995;28;96453;-63
2022/03/15 01:19:14;;;;;;;2.50;2.30;;;22.90;70.30;;;;;;4962238;28;95910;-55
2022/03/15 01:21:45;;;;;;;2.38;2.17;;;22.90;70.30;;;;;;4963916;28;95883;-52
2022/03/15 01:24:16;;;;;;;2.97;1.85;;;23.00;70.10;;;;;;4964142;28;95677;-63
2022/03/15 01:26:50;;;;;;;2.78;2.20;;;23.10;70.20;;;;;;4960888;28;98454;-52
2022/03/15 01:29:22;;;;;;;2.63;2.40;;;23.10;70.10;;;;;;4964519;28;95781;-57
2022/03/15 01:31:54;;;;;;;3.08;2.67;;;23.10;70.00;;;;;;4953698;28;95347;-53
2022/03/15 01:34:27;;;;;;;2.42;2.10;;;23.20;70.30;;;;;;4957688;28;96111;-55
2022/03/15 01:36:58;;;;;;;3.88;2.15;;;23.40;70.30;;;;;;4960944;28;98735;-51
2022/03/15 01:39:30;;;;;;;2.58;2.35;;;23.50;70.00;;;;;;4961052;28;95609;-62
2022/03/15 01:42:00;;;;;;;3.70;2.00;;;23.60;69.90;;;;;;4963461;28;96494;-62
2022/03/15 01:44:33;;;;;;;2.25;2.03;;;23.70;69.60;;;;;;4960432;28;95816;-63
2022/03/15 01:47:05;;;;;;;2.55;2.28;;;23.70;69.50;;;;;;4956686;28;95884;-50
2022/03/15 01:49:35;;;;;;;2.30;2.10;;;23.80;69.40;;;;;;4963549;28;95961;-56
2022/03/15 01:52:13;;;;;;;3.08;2.00;;;23.90;69.30;;;;;;4962857;28;95587;-55
2022/03/15 01:54:45;;;;;;;2.20;2.00;;;23.90;67.70;;;;;;4964370;28;96198;-58
2022/03/15 01:57:19;;;;;;;2.40;2.20;;;24.00;69.10;;;;;;4964273;28;96290;-62
2022/03/15 01:59:50;;;;;;;;;;;24.10;67.20;;;;;;4995091;28;95754;-56
2022/03/15 02:02:20;;;;;;;2.60;2.10;;;24.20;68.90;;;;;;4986307;28;95863;-57
2022/03/15 02:04:51;;;;;;;1.98;1.88;;;24.20;68.40;;;;;;4964045;28;95794;-55
2022/03/15 02:07:23;;;;;;;2.13;1.92;;;24.20;68.20;;;;;;4962977;28;95970;-55
2022/03/15 02:09:55;;;;;;;2.78;2.00;;;24.20;68.20;;;;;;4940424;28;95692;-61
2022/03/15 02:12:28;;;;;;;3.17;2.00;;;24.20;68.10;;;;;;4963716;28;95784;-63
2022/03/15 02:15:02;;;;;;;2.15;2.05;;;24.20;68.40;;;;;;4962989;28;95663;-55
2022/03/15 02:17:36;;;;;;;2.15;1.67;;;24.10;68.10;;;;;;4954954;28;95977;-55
2022/03/15 02:20:09;;;;;;;3.00;1.70;;;24.10;68.20;;;;;;4962636;28;96007;-63
2022/03/15 02:22:40;;;;;;;2.15;1.73;;;24.10;68.30;;;;;;4957453;28;95881;-54
2022/03/15 02:25:12;;;;;;;1.80;1.70;;;24.10;68.40;;;;;;4960284;28;95749;-63
2022/03/15 02:27:44;;;;;;;1.98;1.85;;;24.10;68.40;;;;;;4861321;28;2857616;-56
2022/03/15 02:30:16;;;;;;;;;;;24.10;68.50;;;;;;4956273;28;96399;-56
2022/03/15 02:32:48;;;;;;;1.98;1.88;;;24.10;68.40;;;;;;4963922;28;96252;-61
2022/03/15 02:35:20;;;;;;;1.85;1.75;;;24.10;67.20;;;;;;4965326;28;95559;-57
2022/03/15 02:37:51;;;;;;;2.40;1.73;;;24.10;68.60;;;;;;4961717;28;96709;-56
2022/03/15 02:40:21;;;;;;;;;;;24.10;68.70;;;;;;4964547;28;96297;-56
2022/03/15 02:42:52;;;;;;;2.05;1.67;;;24.10;69.20;;;;;;4964009;28;95386;-53
2022/03/15 02:45:26;;;;;;;1.80;1.70;;;24.20;68.90;;;;;;4957600;28;98412;-55
2022/03/15 02:47:57;;;;;;;2.50;2.17;;;24.20;68.70;;;;;;4960907;28;95850;-58
2022/03/15 02:50:28;;;;;;;2.05;1.85;;;24.30;69.30;;;;;;4961667;28;95709;-64
2022/03/15 02:52:59;;;;;;;2.30;2.00;;;24.40;69.40;;;;;;4962709;28;97470;-56
2022/03/15 02:55:32;;;;;;;2.75;2.13;;;24.40;68.60;;;;;;4962974;28;95975;-51
2022/03/15 02:58:02;;;;;;;1.70;1.60;;;24.50;67.40;;;;;;4960303;28;95848;-62
2022/03/15 03:00:34;;;;;;;5.00;1.98;;;24.40;66.50;;;;;;4945650;28;97697;-57
2022/03/15 03:03:06;;;;;;;2.47;1.52;;;24.50;66.20;;;;;;4962608;28;98070;-64
2022/03/15 03:05:36;;;;;;;1.73;1.63;;;24.50;65.90;;;;;;4964849;28;95935;-54
2022/03/15 03:08:07;;;;;;;1.85;1.75;;;24.50;64.40;;;;;;4964334;28;95953;-64
2022/03/15 03:10:40;;;;;;;1.40;1.30;;;24.50;63.90;;;;;;4963984;28;95825;-54
2022/03/15 03:13:13;;;;;;;1.67;1.58;;;24.50;63.00;;;;;;4961354;28;96242;-64
2022/03/15 03:15:45;;;;;;;1.63;1.50;;;24.50;61.90;;;;;;4955576;28;96322;-63
2022/03/15 03:18:16;;;;;;;1.73;1.63;;;24.50;61.80;;;;;;4959621;28;96255;-64
2022/03/15 03:20:51;;;;;;;1.60;1.50;;;24.40;61.80;;;;;;4963519;28;96909;-63
2022/03/15 03:23:22;;;;;;;1.90;1.80;;;24.50;61.00;;;;;;4965676;28;96057;-62
2022/03/15 03:25:52;;;;;;;2.17;1.10;;;24.40;60.40;;;;;;4964584;28;95783;-64
2022/03/15 03:28:24;;;;;;;2.03;1.73;;;24.50;59.90;;;;;;4979570;28;96360;-64
2022/03/15 03:30:56;;;;;;;1.30;1.20;;;24.40;59.60;;;;;;4955974;28;96646;-65
2022/03/15 03:33:27;;;;;;;1.73;1.60;;;24.40;59.30;;;;;;4963163;28;95972;-54
2022/03/15 03:35:57;;;;;;;;;;;24.40;59.00;;;;;;4962552;28;95733;-64
2022/03/15 03:38:28;;;;;;;1.50;1.40;;;24.40;59.50;;;;;;4965238;28;96482;-64
2022/03/15 03:40:59;;;;;;;;;;;24.40;58.60;;;;;;4964353;28;95734;-56
2022/03/15 03:43:31;;;;;;;2.28;1.30;;;24.40;58.60;;;;;;4966439;28;98415;-58
2022/03/15 03:46:06;;;;;;;2.58;1.55;;;24.50;59.20;;;;;;4955951;28;96714;-64
2022/03/15 03:48:38;;;;;;;2.35;1.30;;;24.40;58.80;;;;;;4960353;28;98262;-55
2022/03/15 03:51:11;;;;;;;1.52;1.42;;;24.40;58.60;;;;;;4963354;28;95442;-56
2022/03/15 03:53:41;;;;;;;1.98;1.77;;;24.50;59.00;;;;;;4962986;28;95722;-63
2022/03/15 03:56:14;;;;;;;2.15;1.45;;;24.50;59.10;;;;;;4964125;28;95918;-54
2022/03/15 03:58:44;;;;;;;1.85;1.70;;;24.40;59.20;;;;;;4979444;28;99724;-63
2022/03/15 04:01:14;;;;;;;4.22;1.48;;;24.20;59.20;;;;;;4955891;28;96353;-63
2022/03/15 04:03:44;;;;;;;2.08;1.80;;;24.10;59.20;;;;;;4963352;28;96665;-51
2022/03/15 04:06:14;;;;;;;2.90;1.42;;;24.10;59.10;;;;;;4960900;28;95389;-51
2022/03/15 04:08:46;;;;;;;1.50;1.40;;;24.00;59.30;;;;;;4962356;28;96068;-51
2022/03/15 04:11:18;;;;;;;1.42;1.33;;;23.90;59.00;;;;;;4976454;28;98113;-51
2022/03/15 04:13:49;;;;;;;1.67;1.40;;;23.80;59.00;;;;;;4963289;28;96754;-62
2022/03/15 04:16:22;;;;;;;1.10;1.10;;;23.80;59.00;;;;;;4955812;28;96520;-55
2022/03/15 04:18:53;;;;;;;1.52;1.40;;;23.70;59.10;;;;;;4978116;28;96271;-50
2022/03/15 04:21:24;;;;;;;1.50;1.40;;;23.70;59.20;;;;;;4961316;28;96039;-50
2022/03/15 04:23:57;;;;;;;2.22;1.75;;;23.60;59.20;;;;;;4963324;28;95807;-50
2022/03/15 04:26:28;;;;;;;1.60;1.50;;;23.60;59.20;;;;;;4977349;28;96725;-62
2022/03/15 04:28:59;;;;;;;1.55;1.45;;;23.60;59.00;;;;;;4963876;28;95818;-52
2022/03/15 04:31:30;;;;;;;2.67;1.40;;;23.50;58.80;;;;;;4953705;28;95865;-53
2022/03/15 04:34:01;;;;;;;1.77;1.40;;;23.50;58.60;;;;;;4963752;28;96502;-52
2022/03/15 04:36:35;;;;;;;3.38;1.40;;;23.40;58.60;;;;;;4963947;28;97001;-57
2022/03/15 04:39:06;;;;;;;3.40;1.50;;;23.50;56.80;;;;;;4954829;28;96375;-56
2022/03/15 04:41:36;;;;;;;1.52;1.35;;;23.50;59.30;;;;;;4962535;28;95822;-52
2022/03/15 04:44:07;;;;;;;1.58;1.42;;;23.60;58.90;;;;;;4963871;28;95833;-52
2022/03/15 04:46:39;;;;;;;2.10;1.20;;;23.60;59.00;;;;;;4955091;28;95772;-53
2022/03/15 04:49:11;;;;;;;1.15;1.05;;;23.60;58.80;;;;;;4962513;28;95933;-58
2022/03/15 04:51:41;;;;;;;1.52;1.42;;;23.70;58.50;;;;;;4962300;28;96218;-55
2022/03/15 04:54:12;;;;;;;2.17;1.47;;;23.70;58.20;;;;;;4960818;28;97595;-55
2022/03/15 04:56:44;;;;;;;1.90;1.30;;;23.70;58.00;;;;;;4959119;28;98014;-59
2022/03/15 04:59:14;;;;;;;3.03;1.45;;;23.80;58.10;;;;;;4961628;28;96532;-57
2022/03/15 05:01:49;;;;;;;1.55;1.40;;;23.80;58.90;;;;;;4954566;28;97869;-58
2022/03/15 05:04:19;;;;;;;1.45;1.35;;;23.90;59.60;;;;;;4974506;28;95900;-59
2022/03/15 05:06:49;;;;;;;5.38;1.40;;;24.00;60.50;;;;;;4962208;28;95268;-58
2022/03/15 05:09:20;;;;;;;;;;;24.10;60.70;;;;;;4963234;28;96455;-58
2022/03/15 05:11:53;;;;;;;1.60;1.48;;;24.20;61.00;;;;;;4956028;28;98521;-57
2022/03/15 05:14:25;;;;;;;5.38;2.50;;;24.30;61.30;;;;;;4962669;28;95387;-58
2022/03/15 05:16:59;;;;;;;5.00;1.80;;;24.40;64.70;;;;;;4953272;28;96636;-58
2022/03/15 05:19:31;;;;;;;2.97;1.70;;;24.50;65.50;;;;;;4963541;28;96393;-56
2022/03/15 05:22:02;;;;;;;4.00;2.13;;;24.50;63.80;;;;;;4967242;28;97326;-56
2022/03/15 05:24:32;;;;;;;6.10;2.60;;;24.50;65.70;;;;;;4967434;28;95731;-56
2022/03/15 05:27:04;;;;;;;3.25;2.50;;;24.50;66.80;;;;;;4965427;28;95989;-58
2022/03/15 05:29:35;;;;;;;3.97;2.47;;;24.40;67.50;;;;;;4964223;28;96839;-58
2022/03/15 05:32:07;;;;;;;5.05;3.10;;;24.30;67.00;;;;;;4956493;28;96033;-55
2022/03/15 05:34:38;;;;;;;3.10;2.85;;;24.40;68.20;;;;;;4965476;28;95959;-64
2022/03/15 05:37:10;;;;;;;2.95;2.17;;;24.50;68.00;;;;;;4965273;28;95218;-65
2022/03/15 05:39:41;;;;;;;7.75;3.00;;;24.60;67.30;;;;;;4965583;28;96127;-65
2022/03/15 05:42:13;;;;;;;2.75;2.28;;;24.60;68.70;;;;;;4964830;28;95621;-64
2022/03/15 05:44:47;;;;;;;3.20;2.28;;;24.60;68.40;;;;;;4963975;28;96591;-65
2022/03/15 05:47:20;;;;;;;4.13;2.70;;;24.70;67.70;;;;;;4956154;28;96657;-66
2022/03/15 05:49:51;;;;;;;4.13;2.40;;;24.60;68.30;;;;;;4965591;28;96453;-67
2022/03/15 05:52:22;;;;;;;4.07;2.58;;;24.60;67.80;;;;;;4965296;28;95887;-68
2022/03/15 05:54:54;;;;;;;3.58;2.70;;;24.70;67.50;;;;;;4965519;28;96567;-66
2022/03/15 05:57:24;;;;;;;2.80;2.33;;;24.70;67.50;;;;;;4965335;28;95270;-58
2022/03/15 05:59:54;;;;;;;2.25;2.05;;;24.60;68.10;;;;;;4965232;28;95916;-53
2022/03/15 06:02:24;;;;;;;4.72;2.33;;;24.60;67.60;;;;;;4955205;28;95922;-56
2022/03/15 06:04:55;;;;;;;2.45;1.80;;;24.60;67.40;;;;;;4965447;28;96539;-53
2022/03/15 06:07:27;;;;;;;4.30;2.30;;;24.70;65.40;;;;;;4964372;28;95944;-56
2022/03/15 06:09:59;;;;;;;2.35;1.60;;;24.70;63.70;;;;;;4963590;28;95873;-54
2022/03/15 06:12:31;;;;;;;3.20;1.88;;;24.70;63.40;;;;;;4963904;28;95957;-54
2022/03/15 06:15:03;;;;;;;2.83;1.77;;;24.60;62.30;;;;;;4965332;28;96563;-55
2022/03/15 06:17:56;;;;;;;2.05;1.85;;;24.60;61.50;;;;;;4958030;28;96160;-52
2022/03/15 06:20:27;;;;;;;2.70;2.10;;;24.60;60.90;;;;;;4963447;28;95959;-51
2022/03/15 06:23:01;;;;;;;2.40;1.90;;;24.50;55.60;;;;;;4965823;28;96073;-57
2022/03/15 06:25:33;;;;;;;2.20;2.00;;;24.40;60.70;;;;;;4965474;28;95985;-52
2022/03/15 06:28:05;;;;;;;3.83;1.67;;;24.40;61.10;;;;;;4965563;28;95312;-56
2022/03/15 06:30:37;;;;;;;6.78;1.92;;;24.40;61.50;;;;;;4954451;28;98357;-56
2022/03/15 06:33:11;;;;;;;4.43;2.17;;;24.40;62.00;;;;;;4943743;28;96192;-55
2022/03/15 06:35:46;;;;;;;3.30;1.80;;;24.40;62.60;;;;;;4944856;28;95969;-65
2022/03/15 06:38:18;;;;;;;1.80;1.70;;;24.40;63.10;;;;;;4939385;28;95832;-65
2022/03/15 06:40:50;;;;;;;3.13;1.77;;;24.40;63.80;;;;;;4945497;28;96503;-65
2022/03/15 06:43:21;;;;;;;3.42;1.85;;;24.30;64.90;;;;;;4944315;28;96058;-65
2022/03/15 06:45:51;;;;;;;;;;;24.30;64.80;;;;;;4940791;28;95814;-64
2022/03/15 06:48:23;;;;;;;2.65;2.00;;;24.30;65.20;;;;;;4965445;28;95944;-65
2022/03/15 06:50:54;;;;;;;2.17;1.98;;;24.30;65.70;;;;;;4963568;28;95900;-64
2022/03/15 06:53:25;;;;;;;2.20;1.88;;;24.30;66.00;;;;;;4962187;28;96230;-55
2022/03/15 06:55:57;;;;;;;2.45;1.90;;;24.20;66.10;;;;;;4977924;28;95524;-65
2022/03/15 06:58:27;;;;;;;3.85;2.00;;;24.20;66.20;;;;;;4964163;28;95311;-63
2022/03/15 07:00:58;;;;;;;1.70;1.60;;;24.20;66.40;;;;;;4951329;28;97856;-66
2022/03/15 07:03:29;;;;;;;2.15;1.90;;;24.20;66.60;;;;;;4943434;28;95811;-54
2022/03/15 07:06:00;;;;;;;3.20;2.35;;;24.20;67.10;;;;;;4945258;28;96188;-65
2022/03/15 07:08:33;;;;;;;2.40;2.20;;;24.20;67.60;;;;;;4944163;28;95391;-65
2022/03/15 07:11:03;;;;;;;2.25;2.10;;;24.10;68.10;;;;;;4944189;28;96477;-64
2022/03/15 07:13:34;;;;;;;2.20;1.95;;;24.10;68.80;;;;;;4945311;28;95348;-56
2022/03/15 07:16:05;;;;;;;3.83;2.28;;;24.00;69.30;;;;;;4937072;28;96326;-54
2022/03/15 07:18:37;;;;;;;2.17;2.08;;;24.00;70.60;;;;;;4943968;28;96060;-64
2022/03/15 07:21:08;;;;;;;2.10;2.00;;;24.00;70.50;;;;;;4943586;28;96598;-64
2022/03/15 07:23:38;;;;;;;4.20;2.63;;;24.00;70.60;;;;;;4945065;28;96194;-64
2022/03/15 07:26:09;;;;;;;2.17;1.98;;;23.90;70.80;;;;;;4935688;28;95494;-63
2022/03/15 07:28:41;;;;;;;3.83;2.22;;;23.90;71.10;;;;;;4942419;28;95888;-64
2022/03/15 07:31:15;;;;;;;2.58;2.38;;;23.90;71.30;;;;;;4935434;28;96487;-58
2022/03/15 07:33:47;;;;;;;;;;;23.90;71.40;;;;;;4942327;28;96283;-59
2022/03/15 07:36:18;;;;;;;2.27;2.00;;;23.90;71.40;;;;;;4944981;28;96622;-64
2022/03/15 07:38:50;;;;;;;2.38;2.17;;;24.00;71.20;;;;;;4942462;28;95791;-52
2022/03/15 07:41:23;;;;;;;3.40;2.20;;;24.00;71.20;;;;;;4941651;28;96125;-64
2022/03/15 07:43:54;;;;;;;2.95;2.47;;;23.90;71.20;;;;;;4940998;28;96078;-66
2022/03/15 07:46:25;;;;;;;2.20;2.00;;;23.90;71.30;;;;;;4942712;28;95744;-63
2022/03/15 07:48:56;;;;;;;2.63;2.10;;;23.90;71.50;;;;;;4961706;28;95798;-64
2022/03/15 07:51:28;;;;;;;2.78;2.15;;;23.90;71.50;;;;;;4962478;28;96521;-64
2022/03/15 07:53:59;;;;;;;1.90;1.80;;;23.90;71.50;;;;;;4956627;28;97638;-55
2022/03/15 07:56:30;;;;;;;2.08;1.75;;;23.80;71.40;;;;;;4961736;28;95953;-64
2022/03/15 07:59:01;;;;;;;2.20;2.08;;;23.80;71.40;;;;;;4960652;28;95740;-55
2022/03/15 08:01:31;;;;;;;3.23;2.23;;;23.70;71.50;;;;;;4968802;28;96702;-51
2022/03/15 08:04:03;;;;;;;2.22;1.83;;;23.70;71.50;;;;;;4961822;28;95879;-64
2022/03/15 08:06:35;;;;;;;2.80;1.90;;;23.70;71.60;;;;;;4961834;28;95965;-53
2022/03/15 08:09:06;;;;;;;4.15;2.08;;;23.70;71.60;;;;;;4962920;28;95803;-54
2022/03/15 08:11:37;;;;;;;1.83;1.70;;;23.60;71.70;;;;;;4962586;28;96672;-52
2022/03/15 08:14:09;;;;;;;2.28;2.08;;;23.70;71.80;;;;;;4963406;28;99334;-51
2022/03/15 08:16:40;;;;;;;2.40;2.17;;;23.60;71.80;;;;;;4952748;28;98763;-52
2022/03/15 08:19:12;;;;;;;2.08;1.88;;;23.60;71.80;;;;;;4961510;28;96450;-53
2022/03/15 08:21:43;;;;;;;1.80;1.42;;;23.60;71.80;;;;;;4961443;28;96024;-51
2022/03/15 08:24:14;;;;;;;2.40;2.20;;;23.50;71.70;;;;;;4961413;28;96172;-63
2022/03/15 08:26:45;;;;;;;2.15;1.98;;;23.50;71.90;;;;;;4961585;28;96186;-53
2022/03/15 08:29:16;;;;;;;;;;;23.50;72.60;;;;;;4962071;28;95805;-56
2022/03/15 08:31:47;;;;;;;2.63;2.05;;;23.50;71.80;;;;;;4953325;28;96408;-53
2022/03/15 08:34:19;;;;;;;2.42;2.20;;;23.50;71.80;;;;;;4960203;28;96768;-53
2022/03/15 08:36:50;;;;;;;2.13;1.92;;;23.50;71.90;;;;;;4961510;28;95890;-53
2022/03/15 08:39:23;;;;;;;2.17;1.92;;;23.50;71.80;;;;;;4962126;28;95745;-55
2022/03/15 08:41:55;;;;;;;1.80;1.70;;;23.40;71.80;;;;;;4960865;28;96500;-56
2022/03/15 08:44:26;;;;;;;1.70;1.48;;;23.40;71.80;;;;;;4961106;28;96258;-55
2022/03/15 08:46:56;;;;;;;;;;;23.40;71.80;;;;;;4968308;28;95364;-54
2022/03/15 08:49:28;;;;;;;1.85;1.75;;;23.40;71.80;;;;;;4962629;28;95406;-50
2022/03/15 08:52:00;;;;;;;1.70;1.55;;;23.40;71.80;;;;;;4961823;28;96466;-64
2022/03/15 08:54:32;;;;;;;2.10;2.00;;;23.40;70.30;;;;;;4962366;28;96788;-52
2022/03/15 08:57:03;;;;;;;2.00;1.90;;;23.40;72.00;;;;;;4964238;28;95804;-52
2022/03/15 08:59:35;;;;;;;1.80;1.70;;;23.40;72.00;;;;;;4963382;28;96503;-50
2022/03/15 09:02:05;;;;;;;2.00;1.40;;;23.40;72.40;;;;;;4957372;28;97962;-53
2022/03/15 09:04:36;;;;;;;;;;;23.40;71.80;;;;;;4964390;28;96290;-54
2022/03/15 09:07:07;;;;;;;2.63;1.98;;;23.40;71.70;;;;;;4964725;28;95711;-53
2022/03/15 09:09:38;;;;;;;1.92;1.83;;;23.50;71.70;;;;;;4964789;28;95436;-54
2022/03/15 09:12:09;;;;;;;2.70;1.80;;;23.50;71.70;;;;;;4964344;28;96122;-64
2022/03/15 09:14:40;;;;;;;1.83;1.70;;;23.40;71.60;;;;;;4960169;28;96173;-53
2022/03/15 09:17:12;;;;;;;2.35;2.15;;;23.40;72.30;;;;;;4957685;28;96253;-63
2022/03/15 09:19:44;;;;;;;2.95;2.10;;;23.40;72.60;;;;;;4965399;28;96740;-64
2022/03/15 09:22:14;;;;;;;1.80;1.70;;;23.30;72.50;;;;;;4963879;28;96185;-64
2022/03/15 09:24:45;;;;;;;;;;;23.30;72.10;;;;;;4961628;28;96835;-64
2022/03/15 09:27:16;;;;;;;2.53;1.67;;;23.30;71.60;;;;;;4965296;28;95913;-55
2022/03/15 09:29:47;;;;;;;3.80;1.80;;;23.30;71.50;;;;;;4965150;28;95795;-53
2022/03/15 09:32:18;;;;;;;1.50;1.40;;;23.40;71.10;;;;;;4951600;28;96889;-55
2022/03/15 09:34:49;;;;;;;3.88;1.60;;;23.40;70.80;;;;;;4964096;28;96224;-65
2022/03/15 09:37:20;;;;;;;;;;;23.40;70.50;;;;;;4964874;28;96055;-65
2022/03/15 09:39:57;;;;;;;2.13;1.70;;;23.40;66.30;;;;;;4964236;28;95382;-53
2022/03/15 09:42:29;;;;;;;1.98;1.60;;;23.40;70.90;;;;;;4964230;28;99396;-64
2022/03/15 09:45:01;;;;;;;2.47;1.80;;;23.40;70.50;;;;;;4964262;28;96189;-65
2022/03/15 09:47:38;;;;;;;1.80;1.70;;;23.40;70.90;;;;;;4959294;28;95935;-65
2022/03/15 09:50:09;;;;;;;2.03;1.90;;;23.40;70.70;;;;;;4963927;28;96246;-64
2022/03/15 09:52:40;;;;;;;1.92;1.83;;;23.30;71.70;;;;;;4963861;28;95849;-65
2022/03/15 09:55:12;;;;;;;3.83;2.60;;;23.20;71.50;;;;;;4965039;28;95824;-54
2022/03/15 09:57:42;;;;;;;2.75;2.20;;;23.10;72.90;;;;;;4967000;28;97130;-65
2022/03/15 10:00:16;;;;;;;3.05;1.98;;;22.90;73.90;;;;;;4977107;28;95821;-65
2022/03/15 10:02:46;;;;;;;2.10;1.90;;;22.70;74.80;;;;;;4966547;28;102843;-65
2022/03/15 10:05:16;;;;;;;2.70;2.50;;;22.50;75.50;;;;;;4968518;28;96192;-65
2022/03/15 10:08:15;;;;;;;4.20;2.72;;;22.40;75.70;;;;;;5076574;27;95888;-67
2022/03/15 10:10:53;;;;;;;3.83;2.35;;;22.00;77.70;;;;;;5072745;27;95672;-66
2022/03/15 10:13:26;;;;;;;4.75;2.45;;;22.00;76.80;;;;;;5064597;27;96547;-66
2022/03/15 10:15:59;;;;;;;4.15;2.00;;;22.30;76.10;;;;;;5059390;27;96417;-65
2022/03/15 10:18:31;;;;;;;2.97;2.15;;;22.50;74.60;;;;;;5033648;27;96414;-62
2022/03/15 10:21:05;;;;;;;2.60;1.75;;;22.80;72.30;;;;;;5033890;27;95455;-62
2022/03/15 10:23:39;;;;;;;1.98;1.50;;;22.90;70.20;;;;;;5032624;27;95972;-60
2022/03/15 10:26:09;;;;;;;2.13;1.90;;;22.90;69.50;;;;;;5032559;27;96627;-60
2022/03/15 10:28:40;;;;;;;2.08;1.75;;;22.90;68.90;;;;;;5036421;27;95728;-61
2022/03/15 10:31:10;;;;;;;;;;;22.90;68.40;;;;;;5030517;27;95964;-62
2022/03/15 10:33:41;;;;;;;3.50;1.88;;;22.80;68.60;;;;;;5037489;27;95690;-63
2022/03/15 10:36:19;;;;;;;1.60;1.50;;;22.90;68.60;;;;;;5036615;27;96641;-64
2022/03/15 10:38:51;;;;;;;1.98;1.70;;;23.00;69.30;;;;;;5035158;27;96253;-64
2022/03/15 10:41:23;;;;;;;1.50;1.40;;;23.10;69.30;;;;;;5031675;27;96168;-60
2022/03/15 10:43:56;;;;;;;1.63;1.52;;;23.20;69.20;;;;;;5032962;27;95253;-62
2022/03/15 10:46:27;;;;;;;1.67;1.58;;;23.30;69.50;;;;;;5034774;27;96693;-64
2022/03/15 10:49:04;;;;;;;2.05;1.95;;;23.40;69.70;;;;;;5047376;27;95848;-64
2022/03/15 10:51:36;;;;;;;2.20;1.58;;;23.50;69.70;;;;;;5048753;27;95806;-63
2022/03/15 10:54:08;;;;;;;2.53;1.40;;;23.40;67.20;;;;;;5049996;27;95957;-63
2022/03/15 10:56:40;;;;;;;2.20;2.00;;;23.30;67.20;;;;;;5044953;27;96070;-63
2022/03/15 10:59:15;;;;;;;2.13;1.70;;;23.20;67.70;;;;;;5057473;27;96768;-63
2022/03/15 11:01:50;;;;;;;1.70;1.60;;;23.10;67.80;;;;;;5031796;27;95748;-63
2022/03/15 11:04:23;;;;;;;1.73;1.63;;;23.10;67.90;;;;;;5033867;27;95669;-64
2022/03/15 11:06:59;;;;;;;1.65;1.55;;;23.10;67.80;;;;;;5033230;27;95864;-65
2022/03/15 11:09:41;;;;;;;3.22;1.98;;;23.00;67.80;;;;;;5030943;27;97542;-65
2022/03/15 11:12:14;;;;;;;4.40;2.10;;;23.10;67.40;;;;;;5020402;27;96210;-65
2022/03/15 11:14:51;;;;;;;3.33;1.92;;;23.10;70.00;;;;;;5031336;27;96196;-66
2022/03/15 11:17:24;;;;;;;7.65;1.80;;;23.00;70.10;;;;;;5023513;27;95988;-64
2022/03/15 11:19:58;;;;;;;2.83;1.75;;;23.00;70.10;;;;;;5019055;28;96205;-63
2022/03/15 11:22:36;;;;;;;4.50;1.70;;;23.10;70.20;;;;;;5019968;28;95899;-63
2022/03/15 11:25:17;;;;;;;1.85;1.75;;;23.10;70.60;;;;;;5018463;28;96328;-63
2022/03/15 11:27:53;;;;;;;2.38;1.95;;;23.10;70.30;;;;;;5019859;28;95896;-65
2022/03/15 11:30:23;;;;;;;3.15;1.92;;;23.20;70.80;;;;;;5011925;27;95917;-63
2022/03/15 11:32:55;;;;;;;3.10;1.67;;;23.20;69.20;;;;;;5019874;28;95934;-63
2022/03/15 11:35:25;;;;;;;1.90;1.63;;;23.20;67.40;;;;;;5018768;28;95860;-64
2022/03/15 11:37:58;;;;;;;1.65;1.55;;;23.20;66.50;;;;;;5017119;28;96771;-64
2022/03/15 11:40:29;;;;;;;1.80;1.70;;;23.10;66.50;;;;;;5017277;28;95681;-63
2022/03/15 11:43:35;;;;;;;1.80;1.63;;;23.00;65.00;;;;;;5020216;27;95914;-64
2022/03/15 11:46:16;;;;;;;5.00;2.00;;;23.00;65.20;;;;;;4995510;27;96008;-59
2022/03/15 11:49:09;;;;;;;2.10;1.83;;;23.00;64.90;;;;;;5020780;27;96376;-63
2022/03/15 11:51:49;;;;;;;1.58;1.48;;;22.90;64.60;;;;;;5016041;28;95800;-56
2022/03/15 11:54:35;;;;;;;1.92;1.65;;;22.90;65.10;;;;;;5021354;27;96806;-57
2022/03/15 11:57:27;;;;;;;1.88;1.77;;;22.80;65.70;;;;;;5022481;27;96690;-59
2022/03/15 12:00:00;;;;;;;1.83;1.73;;;22.70;65.70;;;;;;5020361;27;99138;-60
2022/03/15 12:02:41;;;;;;;1.55;1.48;;;22.70;66.50;;;;;;5014939;27;98350;-60
2022/03/15 12:05:18;;;;;;;1.60;1.50;;;22.60;67.10;;;;;;5014391;28;95911;-58
2022/03/15 12:08:17;;;;;;;1.60;1.50;;;22.60;67.50;;;;;;5020330;28;96332;-59
2022/03/15 12:11:04;;;;;;;2.38;1.42;;;22.70;68.10;;;;;;5014530;28;97086;-59
2022/03/15 12:13:43;;;;;;;1.85;1.40;;;22.60;68.60;;;;;;5009725;27;95928;-60
2022/03/15 12:16:24;;;;;;;2.50;2.08;;;22.70;69.20;;;;;;5019652;27;96478;-62
2022/03/15 12:19:15;;;;;;;3.15;2.10;;;22.70;69.70;;;;;;5040457;27;95478;-62
2022/03/15 12:21:52;;;;;;;1.98;1.88;;;22.80;70.00;;;;;;5040981;27;96059;-60
2022/03/15 12:24:42;;;;;;;1.90;1.70;;;22.80;70.50;;;;;;5042472;27;96331;-59
2022/03/15 12:27:22;;;;;;;1.60;1.50;;;22.80;71.70;;;;;;5039294;27;96372;-57
2022/03/15 12:29:54;;;;;;;4.13;2.35;;;22.80;70.90;;;;;;5038271;27;95921;-59
2022/03/15 12:32:26;;;;;;;4.05;2.00;;;22.80;70.90;;;;;;5032876;27;96622;-59
2022/03/15 12:34:58;;;;;;;3.60;1.90;;;22.80;71.10;;;;;;5039224;27;95354;-62
2022/03/15 12:37:33;;;;;;;1.63;1.52;;;23.00;70.90;;;;;;5041707;27;96931;-60
2022/03/15 12:40:13;;;;;;;2.72;1.60;;;23.00;67.30;;;;;;5042493;27;95213;-61
2022/03/15 12:42:57;;;;;;;2.03;1.92;;;22.90;68.30;;;;;;5043418;27;95704;-62
2022/03/15 12:45:29;;;;;;;4.22;2.45;;;22.90;71.90;;;;;;5032933;27;95917;-61
2022/03/15 12:48:07;;;;;;;2.97;1.45;;;23.00;71.90;;;;;;5039844;27;95656;-61
2022/03/15 12:50:57;;;;;;;2.10;1.90;;;23.00;72.20;;;;;;5040442;27;95822;-59
2022/03/15 12:53:48;;;;;;;4.10;2.22;;;23.00;72.20;;;;;;5051979;27;96514;-61
2022/03/15 12:56:18;;;;;;;2.22;1.85;;;22.90;73.00;;;;;;5043130;27;96022;-60
2022/03/15 12:58:51;;;;;;;3.00;2.38;;;23.00;72.40;;;;;;5046354;27;95768;-58
2022/03/15 13:01:25;;;;;;;3.53;2.15;;;23.10;72.40;;;;;;5029936;27;96744;-64
2022/03/15 13:03:58;;;;;;;3.03;2.10;;;23.10;72.80;;;;;;5040836;27;95727;-60
2022/03/15 13:06:32;;;;;;;4.50;2.22;;;23.10;72.50;;;;;;5048842;27;95930;-51
2022/03/15 13:09:03;;;;;;;2.63;2.30;;;23.00;72.00;;;;;;5057872;27;95646;-53
2022/03/15 13:11:48;;;;;;;7.57;2.88;;;22.50;74.90;;;;;;5038983;27;95352;-54
2022/03/15 13:14:27;;;;;;;2.30;2.10;;;22.10;76.80;;;;;;5037654;27;95867;-50
2022/03/15 13:17:01;;;;;;;3.25;2.75;;;22.00;77.50;;;;;;5037045;27;95721;-58
2022/03/15 13:19:37;;;;;;;3.00;2.80;;;21.80;78.40;;;;;;5049739;27;95647;-51